createdAt,value
2022-10-20T00:01:31.547Z,14.08
2022-10-20T00:04:00.572Z,14.00
2022-10-20T00:06:35.137Z,13.93
2022-10-20T00:09:06.229Z,13.91
2022-10-20T00:11:35.901Z,13.87
2022-10-20T00:14:06.949Z,13.78
2022-10-20T00:16:40.538Z,13.71
2022-10-20T00:19:09.683Z,13.69
2022-10-20T00:21:40.226Z,13.72
2022-10-20T00:24:09.752Z,13.73
2022-10-20T00:26:39.112Z,13.72
2022-10-20T00:29:08.348Z,13.70
2022-10-20T00:31:37.534Z,13.67
2022-10-20T00:34:06.886Z,13.63
2022-10-20T00:36:35.774Z,13.58
2022-10-20T00:39:07.895Z,13.54
2022-10-20T00:41:37.353Z,13.47
2022-10-20T00:44:44.124Z,13.41
2022-10-20T00:47:18.616Z,13.38
2022-10-20T00:49:48.161Z,13.37
2022-10-20T00:52:18.932Z,13.35
2022-10-20T00:54:48.419Z,13.32
2022-10-20T00:57:18.103Z,13.33
2022-10-20T00:59:47.822Z,13.32
2022-10-20T01:02:18.106Z,13.28
2022-10-20T01:04:47.357Z,13.21
2022-10-20T01:07:16.427Z,13.18
2022-10-20T01:09:48.567Z,13.18
2022-10-20T01:12:28.897Z,13.12
2022-10-20T01:15:22.438Z,13.10
2022-10-20T01:18:02.787Z,13.10
2022-10-20T01:21:09.840Z,13.11
2022-10-20T01:24:04.361Z,13.10
2022-10-20T01:27:05.978Z,13.08
2022-10-20T01:29:53.782Z,13.05
2022-10-20T01:32:29.293Z,13.04
2022-10-20T01:35:06.196Z,13.05
2022-10-20T01:37:49.602Z,13.03
2022-10-20T01:40:28.942Z,13.00
2022-10-20T01:43:07.907Z,13.01
2022-10-20T01:45:43.175Z,12.97
2022-10-20T01:48:18.163Z,12.93
2022-10-20T01:50:49.687Z,12.91
2022-10-20T01:56:05.157Z,12.95
2022-10-20T01:59:09.555Z,12.96
2022-10-20T02:02:02.139Z,12.96
2022-10-20T02:04:37.515Z,12.90
2022-10-20T02:07:16.040Z,12.88
2022-10-20T02:09:51.139Z,12.92
2022-10-20T02:12:26.247Z,12.94
2022-10-20T02:14:57.101Z,12.89
2022-10-20T02:17:40.489Z,12.85
2022-10-20T02:20:12.792Z,12.82
2022-10-20T02:22:42.993Z,12.81
2022-10-20T02:25:24.929Z,12.78
2022-10-20T02:27:56.608Z,12.74
2022-10-20T02:30:35.914Z,12.69
2022-10-20T02:33:10.272Z,12.66
2022-10-20T02:35:44.669Z,12.62
2022-10-20T02:41:09.308Z,12.58
2022-10-20T02:43:41.674Z,12.55
2022-10-20T02:46:11.972Z,12.54
2022-10-20T02:48:44.298Z,12.52
2022-10-20T02:51:21.616Z,12.51
2022-10-20T02:53:56.819Z,12.51
2022-10-20T02:56:30.313Z,12.51
2022-10-20T02:59:06.180Z,12.48
2022-10-20T03:01:35.721Z,12.48
2022-10-20T03:04:09.126Z,12.48
2022-10-20T03:06:40.335Z,12.47
2022-10-20T03:09:10.305Z,12.48
2022-10-20T03:11:42.808Z,12.47
2022-10-20T03:14:13.647Z,12.45
2022-10-20T03:19:38.478Z,12.36
2022-10-20T03:22:10.064Z,12.33
2022-10-20T03:24:39.744Z,12.32
2022-10-20T03:27:08.900Z,12.33
2022-10-20T03:29:38.142Z,12.30
2022-10-20T03:32:07.529Z,12.31
2022-10-20T03:34:39.175Z,12.33
2022-10-20T03:37:08.267Z,12.35
2022-10-20T03:39:37.440Z,12.35
2022-10-20T03:42:07.681Z,12.32
2022-10-20T03:44:50.271Z,12.29
2022-10-20T03:47:21.302Z,12.29
2022-10-20T03:49:54.528Z,12.33
2022-10-20T03:52:29.695Z,12.35
2022-10-20T03:55:11.440Z,12.36
2022-10-20T03:57:40.685Z,12.33
2022-10-20T04:00:19.793Z,12.31
2022-10-20T04:02:50.041Z,12.29
2022-10-20T04:05:23.209Z,12.28
2022-10-20T04:07:52.394Z,12.26
2022-10-20T04:10:27.179Z,12.25
2022-10-20T04:13:03.285Z,12.23
2022-10-20T04:18:37.627Z,12.15
2022-10-20T04:21:12.192Z,12.13
2022-10-20T04:23:58.199Z,12.15
2022-10-20T04:26:30.237Z,12.14
2022-10-20T04:32:25.659Z,12.15
2022-10-20T04:34:54.790Z,12.15
2022-10-20T04:37:27.274Z,12.11
2022-10-20T04:39:58.533Z,12.11
2022-10-20T04:42:27.062Z,12.14
2022-10-20T04:47:25.545Z,12.17
2022-10-20T04:49:53.088Z,12.14
2022-10-20T04:52:22.095Z,12.15
2022-10-20T04:54:54.296Z,12.10
2022-10-20T04:57:21.884Z,12.06
2022-10-20T05:03:15.160Z,12.14
2022-10-20T05:06:05.670Z,12.14
2022-10-20T05:41:20.120Z,12.14
2022-10-20T05:53:24.721Z,12.22
2022-10-20T05:56:21.271Z,12.21
2022-10-20T05:58:58.933Z,12.22
2022-10-20T06:10:13.465Z,12.27
2022-10-20T06:13:31.576Z,12.27
2022-10-20T06:25:01.668Z,12.23
2022-10-20T06:27:50.092Z,12.19
2022-10-20T07:35:46.025Z,12.28
2022-10-20T07:38:33.085Z,12.29
2022-10-20T07:41:24.813Z,12.30
2022-10-20T07:44:17.727Z,12.30
2022-10-20T07:54:48.299Z,12.33
2022-10-20T08:00:20.905Z,12.40
2022-10-20T08:03:18.008Z,12.45
2022-10-20T08:06:31.130Z,12.51
2022-10-20T08:12:11.850Z,12.63
2022-10-20T08:14:55.079Z,12.72
2022-10-20T08:44:44.502Z,13.28
2022-10-20T08:50:09.102Z,13.28
2022-10-20T08:52:59.825Z,13.27
2022-10-20T08:55:38.997Z,13.33
2022-10-20T08:58:46.916Z,13.42
2022-10-20T09:05:09.636Z,13.58
2022-10-20T09:40:53.052Z,13.65
2022-10-20T09:43:45.035Z,13.75
2022-10-20T09:46:49.465Z,13.79
2022-10-20T09:49:44.984Z,13.90
2022-10-20T09:52:50.895Z,14.31
2022-10-20T09:58:57.996Z,15.17
2022-10-20T10:05:12.212Z,15.05
2022-10-20T10:08:19.298Z,15.12
2022-10-20T11:10:56.169Z,16.26
2022-10-20T11:13:31.690Z,16.38
2022-10-20T11:16:27.567Z,16.28
2022-10-20T11:19:40.324Z,16.13
2022-10-20T11:22:27.984Z,16.04
2022-10-20T11:25:06.546Z,16.06
2022-10-20T11:27:39.982Z,16.17
2022-10-20T11:30:21.474Z,16.60
2022-10-20T14:53:19.338Z,14.66
2022-10-20T14:55:59.240Z,14.63
2022-10-20T14:58:42.190Z,14.60
2022-10-20T15:01:30.053Z,14.59
2022-10-20T15:06:38.820Z,14.49
2022-10-20T15:09:20.367Z,14.48
2022-10-20T15:11:54.080Z,14.48
2022-10-20T15:14:26.027Z,14.47
2022-10-20T15:16:58.992Z,14.43
2022-10-20T15:51:53.075Z,14.09
2022-10-20T15:54:28.022Z,14.09
2022-10-20T15:59:37.271Z,14.09
2022-10-20T16:02:04.875Z,14.11
2022-10-20T16:04:32.519Z,14.12
2022-10-20T16:07:02.738Z,14.09
2022-10-20T16:25:54.181Z,14.06
2022-10-20T16:28:27.211Z,14.09
2022-10-20T16:31:03.381Z,14.08
2022-10-20T16:33:32.662Z,14.07
2022-10-20T16:36:04.842Z,14.06
2022-10-20T16:38:37.410Z,14.07
2022-10-20T16:41:18.386Z,14.07
2022-10-20T16:43:48.801Z,14.07
2022-10-20T16:48:52.220Z,14.05
2022-10-20T16:51:20.544Z,14.01
2022-10-20T16:53:50.043Z,14.00
2022-10-20T16:56:20.974Z,13.97
2022-10-20T16:58:50.181Z,13.96
2022-10-20T17:01:19.989Z,13.96
2022-10-20T17:03:49.916Z,13.95
2022-10-20T17:06:19.875Z,13.93
2022-10-20T17:08:48.072Z,13.91
2022-10-20T17:11:17.973Z,13.89
2022-10-20T17:13:47.241Z,13.90
